Time;durP1;ratioP1;P1;durP2;ratioP2;P2;SDS_P1;SDS_P2;PMS_P1;PMS_P2;Temp;Humidity;BMP_temperature;BMP_pressure;BME280_temperature;BME280_humidity;BME280_pressure;Samples;Min_cycle;Max_cycle;Signal;HPM_P1;HPM_P2
2024/02/26 00:01:04;;;;;;;29.20;17.10;;;;;;;2.99;84.30;100379.15;104291;1270;61650;-68
2024/02/26 00:03:52;;;;;;;29.20;16.60;;;;;;;2.98;84.19;100375.31;104394;1263;139197;-68
2024/02/26 00:06:19;;;;;;;28.10;16.90;;;;;;;2.98;84.28;100376.52;108376;1263;67073;-68
2024/02/26 00:08:45;;;;;;;23.90;15.50;;;;;;;2.98;84.45;100372.00;108513;1262;73802;-68
2024/02/26 00:11:12;;;;;;;28.00;16.40;;;;;;;2.99;84.32;100374.81;108378;1262;138614;-68
2024/02/26 00:13:39;;;;;;;27.70;16.40;;;;;;;2.98;84.38;100374.44;108495;1263;59481;-68
2024/02/26 00:16:07;;;;;;;32.40;15.40;;;;;;;2.99;84.49;100370.68;105243;1264;139209;-68
2024/02/26 00:18:34;;;;;;;28.10;15.60;;;;;;;3.04;84.69;100373.02;104414;1264;66858;-68
2024/02/26 00:21:02;;;;;;;27.60;15.10;;;;;;;3.14;84.96;100373.67;104236;1263;72629;-67
2024/02/26 00:23:29;;;;;;;29.10;14.50;;;;;;;3.24;85.04;100372.23;104210;1264;138450;-67
2024/02/26 00:25:56;;;;;;;27.60;15.60;;;;;;;3.33;85.09;100373.71;104334;1269;61255;-67
2024/02/26 00:28:24;;;;;;;26.60;13.70;;;;;;;3.43;85.09;100371.23;104237;1262;138531;-67
2024/02/26 00:30:55;;;;;;;22.50;12.80;;;;;;;3.50;85.00;100366.37;104433;1264;65705;-68
2024/02/26 00:33:23;;;;;;;20.10;12.80;;;;;;;3.54;84.83;100372.80;108377;1263;139281;-68
2024/02/26 00:35:49;;;;;;;25.80;13.10;;;;;;;3.57;84.65;100371.01;106208;1263;61269;-68
2024/02/26 00:38:16;;;;;;;18.60;12.00;;;;;;;3.61;84.72;100371.55;104405;1267;61244;-67
2024/02/26 00:40:43;;;;;;;20.60;12.00;;;;;;;3.65;84.56;100367.95;104533;1263;138591;-67
2024/02/26 00:43:10;;;;;;;21.00;12.70;;;;;;;3.69;84.59;100366.75;104496;1264;64959;-68
2024/02/26 00:45:37;;;;;;;19.20;11.00;;;;;;;3.73;84.48;100365.67;104279;1264;138645;-68
2024/02/26 00:48:05;;;;;;;18.40;11.40;;;;;;;3.74;84.36;100360.88;104288;1270;61290;-68
2024/02/26 00:50:32;;;;;;;24.60;11.50;;;;;;;3.73;84.19;100364.14;104830;1264;61225;-66
2024/02/26 00:52:59;;;;;;;24.60;12.60;;;;;;;3.70;84.12;100357.92;104024;1272;140036;-66
2024/02/26 00:55:25;;;;;;;19.90;11.60;;;;;;;3.67;83.87;100357.97;108357;1262;67403;-66
2024/02/26 00:57:52;;;;;;;22.10;10.70;;;;;;;3.61;83.82;100356.13;108471;1262;138681;-67
2024/02/26 01:00:19;;;;;;;15.00;10.10;;;;;;;3.57;83.79;100353.83;108422;1262;58966;-68
2024/02/26 01:02:48;;;;;;;21.50;11.20;;;;;;;3.52;83.81;100352.56;108298;1262;60410;-69
2024/02/26 01:05:16;;;;;;;19.40;10.20;;;;;;;3.49;83.85;100353.83;108389;1262;138326;-68
2024/02/26 01:07:43;;;;;;;15.90;9.60;;;;;;;3.47;83.98;100353.75;105362;1267;64807;-68
2024/02/26 01:10:10;;;;;;;18.30;9.70;;;;;;;3.47;83.88;100359.26;104317;1267;138471;-68
2024/02/26 01:12:37;;;;;;;17.10;9.30;;;;;;;3.46;84.09;100354.20;104483;1262;61472;-67
2024/02/26 01:15:04;;;;;;;19.00;8.90;;;;;;;3.45;84.09;100353.84;104404;1267;61282;-65
2024/02/26 01:17:31;;;;;;;20.10;10.90;;;;;;;3.45;84.09;100349.33;104361;1263;138983;-65
2024/02/26 01:19:58;;;;;;;15.10;10.20;;;;;;;3.44;84.12;100348.59;104373;1262;66336;-65
2024/02/26 01:22:25;;;;;;;17.50;10.00;;;;;;;3.41;84.15;100353.30;104147;1267;138367;-67
2024/02/26 01:24:51;;;;;;;19.90;11.00;;;;;;;3.37;83.97;100352.06;104253;1262;61387;-66
2024/02/26 01:27:18;;;;;;;18.60;10.50;;;;;;;3.33;83.90;100354.81;104315;1267;138729;-66
2024/02/26 01:29:45;;;;;;;16.10;10.50;;;;;;;3.29;83.98;100357.39;104244;1263;72981;-66
2024/02/26 01:32:12;;;;;;;17.20;10.50;;;;;;;3.24;84.06;100353.67;104349;1267;66303;-66
2024/02/26 01:34:38;;;;;;;17.00;10.80;;;;;;;3.18;84.01;100348.21;104257;1262;139446;-66
2024/02/26 01:37:05;;;;;;;18.30;10.80;;;;;;;3.16;84.05;100349.48;108595;1262;59048;-66
2024/02/26 01:39:32;;;;;;;17.80;10.60;;;;;;;3.13;84.02;100347.96;108436;1262;138628;-66
2024/02/26 01:41:59;;;;;;;17.00;9.90;;;;;;;3.08;84.17;100351.21;108611;1262;73977;-66
2024/02/26 01:44:26;;;;;;;18.50;10.70;;;;;;;3.04;84.14;100349.44;104902;1262;64666;-66
2024/02/26 01:46:53;;;;;;;19.70;10.60;;;;;;;3.00;84.26;100349.08;104369;1262;138756;-67
2024/02/26 01:49:20;;;;;;;21.40;11.00;;;;;;;2.98;84.48;100346.72;104273;1264;61550;-67
2024/02/26 01:51:46;;;;;;;17.90;10.30;;;;;;;2.96;84.41;100344.89;104304;1264;138796;-67
2024/02/26 01:54:13;;;;;;;18.00;10.60;;;;;;;2.94;84.61;100348.08;104357;1266;75629;-68
2024/02/26 01:56:40;;;;;;;17.50;11.40;;;;;;;2.92;84.51;100349.36;104243;1268;65480;-68
2024/02/26 01:59:08;;;;;;;21.30;12.10;;;;;;;2.88;84.58;100353.89;104282;1268;138519;-67
2024/02/26 02:01:35;;;;;;;17.50;11.50;;;;;;;2.84;84.63;100357.67;104486;1269;61331;-67
2024/02/26 02:04:02;;;;;;;18.40;11.80;;;;;;;2.80;84.55;100354.87;108388;1262;138605;-66
2024/02/26 02:06:29;;;;;;;21.10;12.60;;;;;;;2.77;84.66;100354.34;108402;1263;73678;-66
2024/02/26 02:08:56;;;;;;;19.50;11.50;;;;;;;2.77;84.80;100353.30;104939;1263;66187;-66
2024/02/26 02:11:23;;;;;;;22.80;12.90;;;;;;;2.76;84.88;100353.05;104287;1267;138494;-66
2024/02/26 02:13:49;;;;;;;21.10;12.50;;;;;;;2.74;84.98;100356.12;104390;1266;61194;-66
2024/02/26 02:16:16;;;;;;;21.10;12.40;;;;;;;2.73;85.03;100356.24;104387;1267;138466;-66
2024/02/26 02:18:43;;;;;;;19.80;12.40;;;;;;;2.74;85.16;100354.36;104330;1262;74070;-66
2024/02/26 02:21:10;;;;;;;20.20;12.70;;;;;;;2.74;85.22;100358.70;104334;1263;64714;-66
2024/02/26 02:23:36;;;;;;;23.50;13.00;;;;;;;2.74;85.29;100361.30;104177;1267;138265;-65
2024/02/26 02:26:03;;;;;;;21.40;13.10;;;;;;;2.73;85.31;100365.06;104520;1262;61131;-66
2024/02/26 02:28:30;;;;;;;20.80;13.00;;;;;;;2.72;85.24;100369.00;104429;1263;138802;-66
2024/02/26 02:30:57;;;;;;;27.90;12.70;;;;;;;2.69;85.28;100367.13;104359;1264;75977;-66
2024/02/26 02:33:24;;;;;;;20.40;13.70;;;;;;;2.67;85.29;100365.98;104378;1262;139257;-65
2024/02/26 02:35:52;;;;;;;23.20;13.10;;;;;;;2.65;85.27;100363.63;104358;1262;73738;-65
2024/02/26 02:38:19;;;;;;;24.60;13.90;;;;;;;2.64;85.47;100364.43;108615;1264;59151;-66
2024/02/26 02:40:46;;;;;;;25.90;15.00;;;;;;;2.63;85.37;100361.95;108498;1262;138574;-65
2024/02/26 02:43:12;;;;;;;25.20;14.20;;;;;;;2.61;85.45;100362.77;108617;1262;73821;-66
2024/02/26 02:45:39;;;;;;;23.40;14.60;;;;;;;2.63;85.70;100364.73;108422;1263;138609;-65
2024/02/26 02:48:06;;;;;;;23.00;15.00;;;;;;;2.63;85.55;100361.93;107438;1262;70925;-66
2024/02/26 02:50:33;;;;;;;24.80;14.00;;;;;;;2.63;85.64;100360.58;104271;1263;61359;-65
2024/02/26 02:53:00;;;;;;;22.00;14.50;;;;;;;2.61;85.42;100354.73;104338;1263;138410;-66
2024/02/26 02:55:27;;;;;;;22.30;14.10;;;;;;;2.59;85.48;100354.49;104516;1263;75669;-67
2024/02/26 02:57:53;;;;;;;24.20;14.10;;;;;;;2.57;85.34;100354.56;104567;1262;138928;-67
2024/02/26 03:00:22;;;;;;;23.00;14.50;;;;;;;2.55;85.20;100357.08;104237;1262;72437;-67
2024/02/26 03:02:49;;;;;;;23.50;14.70;;;;;;;2.52;85.29;100354.14;104321;1265;61383;-67
2024/02/26 03:05:16;;;;;;;26.30;14.70;;;;;;;2.47;85.24;100353.55;104097;1268;139348;-66
2024/02/26 03:07:43;;;;;;;24.00;14.80;;;;;;;2.44;85.29;100354.95;104378;1267;74159;-67
2024/02/26 03:10:10;;;;;;;23.00;13.90;;;;;;;2.40;85.26;100356.30;104282;1265;138723;-67
2024/02/26 03:12:37;;;;;;;24.50;15.00;;;;;;;2.36;85.36;100360.44;104253;1266;73051;-67
2024/02/26 03:15:04;;;;;;;24.60;15.20;;;;;;;2.34;85.45;100362.73;104435;1267;61277;-67
2024/02/26 03:17:31;;;;;;;23.40;13.90;;;;;;;2.31;85.52;100363.98;106142;1265;138280;-67
2024/02/26 03:19:58;;;;;;;25.90;14.00;;;;;;;2.29;85.52;100368.02;104527;1262;73946;-67
2024/02/26 03:22:25;;;;;;;19.20;12.70;;;;;;;2.29;85.47;100368.52;104152;1262;138567;-67
2024/02/26 03:24:51;;;;;;;25.80;13.90;;;;;;;2.27;85.67;100368.61;104287;1263;71223;-67
2024/02/26 03:27:18;;;;;;;22.20;13.80;;;;;;;2.25;85.79;100366.63;104140;1263;139132;-67
2024/02/26 03:29:45;;;;;;;23.70;13.80;;;;;;;2.24;85.78;100368.11;104355;1263;61539;-67
2024/02/26 03:32:12;;;;;;;26.60;14.50;;;;;;;2.23;85.96;100366.30;104261;1267;73209;-67
2024/02/26 03:34:40;;;;;;;29.00;15.30;;;;;;;2.22;85.87;100367.98;104234;1267;139244;-67
2024/02/26 03:37:10;;;;;;;25.50;14.90;;;;;;;2.20;85.81;100365.98;104424;1265;72961;-68
2024/02/26 03:39:37;;;;;;;29.60;16.20;;;;;;;2.18;86.01;100364.16;104301;1267;138734;-67
2024/02/26 03:42:04;;;;;;;27.70;16.40;;;;;;;2.17;85.89;100364.65;108598;1262;59026;-67
2024/02/26 03:44:33;;;;;;;24.60;15.00;;;;;;;2.15;85.98;100369.22;108653;1262;75067;-68
2024/02/26 03:47:00;;;;;;;25.50;15.50;;;;;;;2.14;85.92;100371.95;106900;1263;138539;-68
2024/02/26 03:49:27;;;;;;;26.90;15.50;;;;;;;2.13;85.87;100372.02;104328;1269;74073;-68
2024/02/26 03:51:54;;;;;;;24.50;15.20;;;;;;;2.11;85.92;100373.86;104159;1263;138707;-66
2024/02/26 03:54:20;;;;;;;27.60;14.50;;;;;;;2.11;85.97;100373.83;104220;1268;61556;-66
2024/02/26 03:56:47;;;;;;;24.80;14.50;;;;;;;2.09;85.93;100371.49;104393;1267;75562;-66
2024/02/26 03:59:14;;;;;;;25.20;14.70;;;;;;;2.07;86.01;100374.65;104258;1264;138478;-65
2024/02/26 04:01:47;;;;;;;25.60;14.80;;;;;;;2.05;85.94;100375.10;104254;1267;72478;-67
2024/02/26 04:04:14;;;;;;;26.50;14.90;;;;;;;2.02;85.75;100367.81;104244;1267;138460;-67
2024/02/26 04:06:44;;;;;;;25.20;14.60;;;;;;;1.99;85.84;100365.73;104366;1267;62561;-67
2024/02/26 04:09:13;;;;;;;23.90;15.20;;;;;;;1.95;85.58;100363.98;105084;1263;75268;-67
2024/02/26 04:11:40;;;;;;;24.90;14.30;;;;;;;1.91;85.60;100363.44;108291;1262;138361;-67
2024/02/26 04:14:08;;;;;;;24.30;14.40;;;;;;;1.88;85.58;100363.27;104283;1265;71991;-65
2024/02/26 04:16:38;;;;;;;22.60;13.60;;;;;;;1.85;85.71;100367.93;104290;1263;138680;-66
2024/02/26 04:19:04;;;;;;;22.00;13.80;;;;;;;1.79;85.44;100370.89;106104;1267;61130;-66
2024/02/26 04:21:31;;;;;;;18.70;14.30;;;;;;;1.72;85.54;100372.32;104226;1266;139154;-66
2024/02/26 04:24:01;;;;;;;25.40;13.00;;;;;;;1.67;85.43;100372.73;104406;1267;67446;-65
2024/02/26 04:26:28;;;;;;;21.40;14.30;;;;;;;1.64;85.53;100372.20;108445;1263;73086;-66
2024/02/26 04:28:55;;;;;;;21.40;13.10;;;;;;;1.62;85.45;100374.70;108372;1263;138537;-67
2024/02/26 04:31:22;;;;;;;23.90;13.90;;;;;;;1.58;85.28;100377.59;108355;1262;60040;-67
2024/02/26 04:33:48;;;;;;;21.60;13.30;;;;;;;1.55;85.44;100382.44;104320;1264;139136;-67
2024/02/26 04:36:16;;;;;;;25.20;13.40;;;;;;;1.52;85.31;100381.04;104395;1264;66832;-66
2024/02/26 04:38:43;;;;;;;22.40;13.20;;;;;;;1.48;85.39;100388.95;104272;1267;72980;-66
2024/02/26 04:41:10;;;;;;;23.60;14.80;;;;;;;1.42;85.18;100391.73;108439;1262;138305;-67
2024/02/26 04:43:41;;;;;;;24.00;15.80;;;;;;;1.34;85.12;100397.04;107476;1262;59764;-66
2024/02/26 04:46:08;;;;;;;25.20;16.20;;;;;;;1.28;85.02;100397.02;104404;1265;138696;-66
2024/02/26 04:48:38;;;;;;;26.40;16.60;;;;;;;1.22;84.92;100398.73;108478;1262;65385;-68
2024/02/26 04:51:05;;;;;;;26.00;16.60;;;;;;;1.18;84.94;100398.31;104772;1263;72727;-68
2024/02/26 04:53:32;;;;;;;28.70;17.30;;;;;;;1.15;84.90;100399.72;104123;1262;138749;-67
2024/02/26 04:55:58;;;;;;;28.30;16.30;;;;;;;1.15;85.28;100403.55;104417;1266;61131;-66
2024/02/26 04:58:25;;;;;;;28.90;15.70;;;;;;;1.13;85.33;100404.65;104373;1263;139122;-66
2024/02/26 05:00:52;;;;;;;27.00;15.20;;;;;;;1.11;85.39;100405.73;104320;1267;64505;-65
2024/02/26 05:03:19;;;;;;;21.00;14.80;;;;;;;1.11;85.48;100407.63;104339;1263;138847;-66
2024/02/26 05:05:46;;;;;;;21.30;14.30;;;;;;;1.08;85.33;100406.77;108467;1262;58963;-66
2024/02/26 05:08:13;;;;;;;24.10;14.00;;;;;;;1.07;85.40;100415.15;108585;1262;59020;-65
2024/02/26 05:10:40;;;;;;;25.10;14.80;;;;;;;1.05;85.57;100419.40;107416;1266;138649;-66
2024/02/26 05:13:07;;;;;;;24.30;14.00;;;;;;;1.04;85.50;100424.52;108497;1262;65931;-66
2024/02/26 05:15:35;;;;;;;20.40;13.30;;;;;;;1.05;85.52;100429.92;104977;1263;138547;-66
2024/02/26 05:18:03;;;;;;;20.80;14.00;;;;;;;1.04;85.72;100427.95;104533;1262;61309;-65
2024/02/26 05:20:31;;;;;;;20.50;13.20;;;;;;;1.02;85.47;100430.78;108466;1262;59603;-64
2024/02/26 05:22:58;;;;;;;23.80;14.50;;;;;;;1.02;85.64;100430.74;108394;1262;139076;-65
2024/02/26 05:25:25;;;;;;;21.40;14.70;;;;;;;1.02;85.85;100429.90;108558;1262;66094;-66
2024/02/26 05:27:52;;;;;;;26.80;14.80;;;;;;;1.05;85.87;100436.27;108411;1262;139245;-66
2024/02/26 05:30:19;;;;;;;29.00;16.20;;;;;;;1.07;85.86;100434.86;106396;1263;60928;-66
2024/02/26 05:32:46;;;;;;;24.80;15.30;;;;;;;1.10;85.85;100440.41;104312;1263;61398;-64
2024/02/26 05:35:12;;;;;;;24.20;15.70;;;;;;;1.11;85.95;100441.52;104284;1263;138609;-65
2024/02/26 05:37:39;;;;;;;23.60;17.00;;;;;;;1.13;86.08;100444.02;104241;1268;66934;-64
2024/02/26 05:40:06;;;;;;;23.80;16.00;;;;;;;1.15;86.20;100451.08;104275;1263;138347;-67
2024/02/26 05:42:33;;;;;;;24.00;16.40;;;;;;;1.18;86.40;100448.81;104234;1264;61266;-62
2024/02/26 05:45:05;;;;;;;27.00;17.60;;;;;;;1.21;86.51;100454.67;104311;1262;61971;-64
2024/02/26 05:47:33;;;;;;;27.60;18.60;;;;;;;1.25;86.62;100456.14;108362;1262;138263;-62
2024/02/26 05:50:00;;;;;;;23.80;17.30;;;;;;;1.28;86.81;100456.67;108395;1263;64899;-63
2024/02/26 05:52:29;;;;;;;24.10;16.40;;;;;;;1.31;86.70;100459.60;108426;1263;139416;-63
2024/02/26 05:54:55;;;;;;;24.50;17.40;;;;;;;1.34;86.77;100459.27;108509;1262;59044;-63
2024/02/26 05:57:22;;;;;;;25.60;16.10;;;;;;;1.39;86.95;100459.83;108391;1262;138582;-63
2024/02/26 05:59:49;;;;;;;26.00;15.40;;;;;;;1.43;87.01;100462.71;108520;1262;74345;-63
2024/02/26 06:02:15;;;;;;;24.80;16.30;;;;;;;1.52;87.19;100470.79;105021;1267;66315;-68
2024/02/26 06:04:42;;;;;;;24.80;16.00;;;;;;;1.60;87.26;100470.73;104219;1264;138731;-66
2024/02/26 06:07:09;;;;;;;21.60;14.50;;;;;;;1.67;87.29;100467.51;104420;1262;61349;-63
2024/02/26 06:09:36;;;;;;;24.50;16.00;;;;;;;1.73;87.36;100468.02;104298;1267;138528;-63
2024/02/26 06:12:03;;;;;;;26.90;16.40;;;;;;;1.81;87.42;100467.89;104294;1268;75215;-63
2024/02/26 06:14:30;;;;;;;24.90;16.30;;;;;;;1.87;87.45;100473.98;108465;1262;65301;-63
2024/02/26 06:16:56;;;;;;;25.40;16.60;;;;;;;1.95;87.57;100476.63;108420;1262;140560;-63
2024/02/26 06:19:23;;;;;;;27.70;16.80;;;;;;;2.02;87.39;100479.13;108467;1262;59321;-64
2024/02/26 06:21:50;;;;;;;24.30;15.60;;;;;;;2.11;87.55;100486.20;108350;1262;139182;-62
2024/02/26 06:24:17;;;;;;;23.70;15.30;;;;;;;2.21;87.37;100486.69;108531;1262;73826;-62
2024/02/26 06:26:44;;;;;;;27.70;16.10;;;;;;;2.29;87.56;100483.70;108611;1262;65743;-62
2024/02/26 06:29:10;;;;;;;26.40;16.60;;;;;;;2.39;87.55;100483.54;108352;1263;138359;-62
2024/02/26 06:31:37;;;;;;;27.00;17.30;;;;;;;2.49;87.43;100485.44;108593;1263;59330;-63
2024/02/26 06:34:04;;;;;;;25.90;16.90;;;;;;;2.58;87.46;100486.94;108430;1262;138475;-62
2024/02/26 06:36:31;;;;;;;29.70;17.90;;;;;;;2.65;87.25;100487.48;108581;1262;74804;-62
2024/02/26 06:38:58;;;;;;;27.50;18.60;;;;;;;2.71;87.26;100489.56;108460;1263;66118;-62
2024/02/26 06:41:27;;;;;;;25.50;17.70;;;;;;;2.78;87.21;100491.83;108305;1262;138461;-62
2024/02/26 06:43:54;;;;;;;28.60;17.90;;;;;;;2.87;87.14;100490.21;108542;1263;58919;-62
2024/02/26 06:46:21;;;;;;;28.90;19.60;;;;;;;2.95;87.16;100487.33;108515;1262;138584;-62
2024/02/26 06:48:48;;;;;;;33.50;22.60;;;;;;;3.04;87.19;100489.16;108636;1263;74457;-63
2024/02/26 06:51:15;;;;;;;30.50;19.60;;;;;;;3.13;87.19;100487.35;108594;1263;65364;-62
2024/02/26 06:53:42;;;;;;;29.20;19.10;;;;;;;3.22;87.02;100490.73;108502;1262;139384;-63
2024/02/26 06:56:08;;;;;;;31.20;20.10;;;;;;;3.30;87.06;100489.76;108669;1262;59260;-63
2024/02/26 06:58:35;;;;;;;30.10;19.20;;;;;;;3.38;86.94;100491.02;108602;1262;138626;-63
2024/02/26 07:01:02;;;;;;;29.00;20.10;;;;;;;3.45;86.92;100494.67;106570;1263;74794;-62
2024/02/26 07:03:30;;;;;;;26.40;19.20;;;;;;;3.53;86.93;100494.35;104195;1267;138959;-62
2024/02/26 07:05:57;;;;;;;32.20;19.50;;;;;;;3.58;86.80;100498.27;105936;1262;74028;-62
2024/02/26 07:08:24;;;;;;;29.40;18.90;;;;;;;3.66;86.90;100496.58;104529;1266;61367;-62
2024/02/26 07:10:50;;;;;;;31.10;18.50;;;;;;;3.73;86.77;100499.85;104273;1262;140359;-61
2024/02/26 07:13:17;;;;;;;34.50;19.60;;;;;;;3.81;86.78;100501.10;104446;1262;75065;-63
2024/02/26 07:15:44;;;;;;;31.50;19.90;;;;;;;3.88;86.61;100504.36;104301;1263;139154;-63
2024/02/26 07:18:11;;;;;;;26.80;18.60;;;;;;;3.95;86.64;100506.29;104262;1263;73357;-63
2024/02/26 07:20:38;;;;;;;28.30;18.00;;;;;;;4.02;86.67;100507.28;108426;1262;59977;-63
2024/02/26 07:23:04;;;;;;;30.50;20.20;;;;;;;4.07;86.62;100509.11;108474;1262;138812;-62
2024/02/26 07:25:31;;;;;;;33.00;20.80;;;;;;;4.15;86.59;100510.48;108497;1265;74650;-62
2024/02/26 07:27:58;;;;;;;33.30;20.30;;;;;;;4.22;86.64;100509.64;108468;1262;138837;-63
2024/02/26 07:30:25;;;;;;;35.70;20.90;;;;;;;4.32;86.47;100510.95;108567;1262;70836;-63
2024/02/26 07:32:51;;;;;;;29.00;20.20;;;;;;;4.40;86.53;100512.53;108533;1262;59570;-63
2024/02/26 07:35:18;;;;;;;31.20;20.10;;;;;;;4.49;86.54;100518.17;108467;1262;139063;-63
2024/02/26 07:37:48;;;;;;;31.60;22.30;;;;;;;4.58;86.47;100518.07;108619;1262;72984;-63
2024/02/26 07:40:15;;;;;;;36.40;23.00;;;;;;;4.70;86.57;100523.48;105238;1263;138654;-63
2024/02/26 07:42:42;;;;;;;31.30;22.30;;;;;;;4.79;86.40;100520.76;104410;1263;73217;-63
2024/02/26 07:45:09;;;;;;;32.50;22.50;;;;;;;4.88;86.48;100518.34;104411;1263;61311;-63
2024/02/26 07:47:40;;;;;;;82.20;47.50;;;;;;;4.98;86.60;100522.09;108558;1262;138837;-63
2024/02/26 07:50:08;;;;;;;71.50;46.10;;;;;;;5.08;86.47;100524.23;108692;1262;74490;-61
2024/02/26 07:52:35;;;;;;;55.10;35.70;;;;;;;5.16;86.36;100524.77;108588;1262;138706;-61
2024/02/26 07:55:05;;;;;;;41.40;28.50;;;;;;;5.24;86.53;100529.83;108633;1263;73993;-62
2024/02/26 07:57:34;;;;;;;41.50;28.80;;;;;;;5.33;86.42;100528.28;108550;1262;139358;-62
2024/02/26 08:00:02;;;;;;;40.10;26.20;;;;;;;5.39;86.39;100529.95;108668;1262;62037;-62
2024/02/26 08:02:29;;;;;;;33.70;22.80;;;;;;;5.44;86.28;100534.31;108540;1262;74695;-62
2024/02/26 08:04:56;;;;;;;55.50;34.40;;;;;;;5.49;86.07;100535.03;106688;1269;139064;-62
2024/02/26 08:07:25;;;;;;;143.20;72.40;;;;;;;5.52;85.98;100533.45;104416;1267;71313;-62
2024/02/26 08:09:52;;;;;;;73.70;43.60;;;;;;;5.59;86.02;100528.16;104299;1268;139133;-62
2024/02/26 08:12:19;;;;;;;36.90;25.30;;;;;;;5.68;86.05;100532.87;104406;1268;61200;-62
2024/02/26 08:14:46;;;;;;;39.40;26.70;;;;;;;5.74;85.96;100535.89;104533;1263;73895;-62
2024/02/26 08:17:13;;;;;;;49.30;33.90;;;;;;;5.79;86.00;100537.85;108529;1262;138043;-63
2024/02/26 08:19:40;;;;;;;38.80;26.60;;;;;;;5.87;86.06;100539.20;108687;1262;73402;-63
2024/02/26 08:22:06;;;;;;;33.00;23.80;;;;;;;5.94;86.08;100538.13;108515;1262;138656;-63
2024/02/26 08:24:33;;;;;;;45.10;36.60;;;;;;;6.03;86.07;100540.58;108679;1263;59041;-63
2024/02/26 08:26:59;;;;;;;33.00;24.60;;;;;;;6.11;86.00;100542.98;108663;1262;75149;-63
2024/02/26 08:29:26;;;;;;;36.80;24.90;;;;;;;6.19;85.98;100549.76;108223;1266;139133;-62
2024/02/26 08:31:53;;;;;;;35.00;25.50;;;;;;;6.28;85.98;100547.66;104465;1267;72831;-62
2024/02/26 08:34:20;;;;;;;30.20;22.50;;;;;;;6.37;86.05;100550.98;104589;1267;138859;-63
2024/02/26 08:36:48;;;;;;;39.90;25.80;;;;;;;6.47;86.22;100553.45;104541;1263;61877;-62
2024/02/26 08:39:17;;;;;;;34.50;26.40;;;;;;;6.56;86.14;100554.33;104413;1268;74621;-62
2024/02/26 08:41:44;;;;;;;32.90;23.70;;;;;;;6.67;86.25;100554.02;104462;1267;68348;-62
2024/02/26 08:44:11;;;;;;;35.60;23.90;;;;;;;6.76;86.41;100559.25;104446;1263;72525;-62
2024/02/26 08:46:38;;;;;;;35.50;25.10;;;;;;;6.86;86.30;100561.53;104256;1268;138575;-62
2024/02/26 08:49:05;;;;;;;43.20;28.90;;;;;;;6.98;86.39;100564.58;104481;1263;61315;-63
2024/02/26 08:51:31;;;;;;;34.70;24.50;;;;;;;7.09;86.47;100563.43;104447;1263;139194;-63
2024/02/26 08:53:58;;;;;;;29.00;21.80;;;;;;;7.19;86.31;100565.36;104384;1265;65371;-63
2024/02/26 08:56:25;;;;;;;28.30;20.60;;;;;;;7.31;86.28;100566.97;104376;1263;73435;-63
2024/02/26 08:58:53;;;;;;;28.30;21.50;;;;;;;7.42;86.26;100569.65;104370;1267;138704;-63
2024/02/26 09:01:20;;;;;;;30.60;21.70;;;;;;;7.52;86.10;100567.73;104535;1263;61327;-63
2024/02/26 09:03:47;;;;;;;28.80;21.40;;;;;;;7.62;86.04;100569.80;104261;1263;138992;-62
2024/02/26 09:06:17;;;;;;;29.40;20.80;;;;;;;7.74;86.01;100570.36;104520;1263;66432;-62
2024/02/26 09:08:44;;;;;;;27.20;20.90;;;;;;;7.85;86.01;100571.77;104470;1263;74014;-62
2024/02/26 09:11:10;;;;;;;33.30;24.50;;;;;;;7.95;85.90;100574.92;104373;1263;139588;-62
2024/02/26 09:13:37;;;;;;;29.40;23.30;;;;;;;8.07;85.96;100575.81;104539;1267;62047;-62
2024/02/26 09:16:05;;;;;;;33.40;24.30;;;;;;;8.16;85.80;100578.73;104459;1263;139265;-62
2024/02/26 09:18:32;;;;;;;32.80;22.80;;;;;;;8.24;85.66;100581.27;104489;1268;66618;-62
2024/02/26 09:20:59;;;;;;;33.00;22.30;;;;;;;8.33;85.59;100584.15;104328;1263;73090;-62
2024/02/26 09:23:26;;;;;;;30.20;23.20;;;;;;;8.43;85.61;100587.63;104382;1262;139318;-62
2024/02/26 09:25:52;;;;;;;33.60;24.90;;;;;;;8.51;85.45;100589.48;104544;1267;61251;-62
2024/02/26 09:28:19;;;;;;;36.70;28.10;;;;;;;8.57;85.26;100594.40;104336;1263;138013;-62
2024/02/26 09:30:46;;;;;;;42.30;31.50;;;;;;;8.61;84.86;100592.57;104586;1263;67183;-62
2024/02/26 09:33:13;;;;;;;44.00;32.60;;;;;;;8.64;84.82;100594.25;108643;1262;72205;-63
2024/02/26 09:35:41;;;;;;;46.60;32.70;;;;;;;8.69;84.77;100595.09;108546;1262;138422;-62
2024/02/26 09:38:07;;;;;;;55.00;37.00;;;;;;;8.71;84.44;100597.08;108630;1262;60439;-62
2024/02/26 09:40:34;;;;;;;61.90;38.00;;;;;;;8.70;84.33;100601.61;108610;1263;138672;-62
2024/02/26 09:43:01;;;;;;;76.80;41.90;;;;;;;8.72;84.22;100599.73;108622;1262;65001;-62
2024/02/26 09:45:28;;;;;;;57.40;33.90;;;;;;;8.71;83.91;100600.58;108404;1263;139083;-62
2024/02/26 09:47:55;;;;;;;48.30;31.70;;;;;;;8.72;83.88;100601.14;105764;1265;61334;-62
2024/02/26 09:50:25;;;;;;;50.70;33.10;;;;;;;8.77;83.89;100601.64;104451;1266;61261;-62
2024/02/26 09:52:55;;;;;;;50.70;33.10;;;;;;;8.85;84.01;100607.10;104308;1263;138900;-61
2024/02/26 09:55:22;;;;;;;47.20;31.10;;;;;;;8.93;84.10;100606.83;104393;1263;67337;-63
2024/02/26 09:57:48;;;;;;;45.10;30.50;;;;;;;9.01;83.94;100608.61;104442;1268;139040;-63
2024/02/26 10:00:19;;;;;;;43.20;30.40;;;;;;;9.05;83.81;100605.95;104236;1266;61462;-63
2024/02/26 10:02:48;;;;;;;40.70;29.10;;;;;;;9.12;83.66;100605.98;104457;1263;61278;-62
2024/02/26 10:05:19;;;;;;;40.40;27.70;;;;;;;9.17;83.58;100608.38;104347;1266;138947;-62
2024/02/26 10:07:46;;;;;;;44.00;30.70;;;;;;;9.20;83.28;100607.95;108650;1263;66721;-63
2024/02/26 10:10:14;;;;;;;48.00;32.40;;;;;;;9.21;83.14;100611.47;108568;1262;137917;-63
2024/02/26 10:12:40;;;;;;;65.90;39.10;;;;;;;9.22;83.05;100611.67;108648;1263;59246;-63
2024/02/26 10:15:08;;;;;;;56.20;35.30;;;;;;;9.21;82.83;100612.54;108644;1262;61416;-63
2024/02/26 10:17:34;;;;;;;41.60;27.70;;;;;;;9.17;82.64;100612.59;104717;1266;138650;-61
2024/02/26 10:20:18;;;;;;;36.30;25.30;;;;;;;9.14;82.60;100608.48;104355;1269;67443;-62
2024/02/26 10:22:45;;;;;;;33.90;23.80;;;;;;;9.12;82.40;100614.88;104359;1268;138720;-62
2024/02/26 10:25:11;;;;;;;33.30;24.10;;;;;;;9.06;82.36;100614.73;104431;1263;61549;-62
2024/02/26 10:27:41;;;;;;;35.70;25.60;;;;;;;9.04;82.47;100615.73;104288;1268;140276;-62
2024/02/26 10:30:19;;;;;;;35.20;24.40;;;;;;;9.02;82.41;100609.17;108640;1263;75721;-63
2024/02/26 10:32:49;;;;;;;37.50;26.20;;;;;;;9.02;82.48;100604.63;108503;1262;66405;-63
2024/02/26 10:35:17;;;;;;;36.70;25.30;;;;;;;9.06;82.56;100599.84;108386;1263;140174;-63
2024/02/26 10:37:44;;;;;;;36.60;25.20;;;;;;;9.09;82.50;100603.80;108699;1262;59610;-63
2024/02/26 10:40:11;;;;;;;36.60;25.80;;;;;;;9.13;82.53;100606.70;108402;1264;139121;-63
2024/02/26 10:42:38;;;;;;;34.10;25.10;;;;;;;9.19;82.60;100609.13;108467;1263;239123;-63
2024/02/26 10:45:06;;;;;;;30.60;24.50;;;;;;;9.24;82.59;100610.33;108527;1264;64546;-63
2024/02/26 10:47:33;;;;;;;36.60;24.70;;;;;;;9.29;82.41;100612.77;108554;1262;138657;-63
2024/02/26 10:50:01;;;;;;;34.70;24.20;;;;;;;9.33;82.35;100615.84;108562;1263;58919;-63
2024/02/26 10:52:30;;;;;;;34.80;25.30;;;;;;;9.38;82.36;100619.31;108401;1263;139027;-63
2024/02/26 10:54:57;;;;;;;35.20;25.50;;;;;;;9.41;82.46;100625.34;108539;1263;74227;-63
2024/02/26 10:57:24;;;;;;;36.70;26.20;;;;;;;9.43;82.25;100626.80;108344;1269;139258;-63
2024/02/26 10:59:51;;;;;;;35.70;26.90;;;;;;;9.44;82.28;100623.48;108544;1263;72113;-63
2024/02/26 11:02:18;;;;;;;34.00;25.30;;;;;;;9.44;82.25;100623.69;108541;1262;58982;-63
2024/02/26 11:04:45;;;;;;;32.10;22.60;;;;;;;9.44;82.18;100622.60;108539;1262;138895;-63
2024/02/26 11:07:12;;;;;;;33.70;23.40;;;;;;;9.45;82.08;100624.74;108662;1263;74897;-62